Waverly, Illinois
Current Conditions -  °F | °C
As of 3:35 AM on Saturday 20 Dec 2014 (Local Time) from KIJX Reporting Station
Overcast Overcast  
Wind Chill: 33°   Ceiling: 6000
Heat Index: 33°   Visibility: 7mi
Dew Point: 29°   Wind: 3mph
Humidity: 86%   Direction: 110°ESE
Pressure: 30.25"   Gusts: NA
Location:  39.59°N, 89.95°W
Report Text: KIJX 200935Z AUTO 11003KT 7SM SCT033 OVC060 01/M01 A3025 RMK AO2 T00061015
Loading
Personal Weather Stations






























Interactive Weather Map New forecast layout! Learn more

10-Day Weather Forecast

Advertisements
Track Severe Weather on mobile